Time;durP1;ratioP1;P1;durP2;ratioP2;P2;SDS_P1;SDS_P2;PMS_P1;PMS_P2;Temp;Humidity;BMP_temperature;BMP_pressure;BME280_temperature;BME280_humidity;BME280_pressure;Samples;Min_cycle;Max_cycle;Signal;HPM_P1;HPM_P2
2022/02/25 00:01:29;;;;;;;;;;;;;;;0.74;75.15;100539.88;4842057;29;19928;-66
2022/02/25 00:03:54;;;;;;;;;;;;;;;0.71;75.38;100526.97;4842362;29;20015;-70
2022/02/25 00:06:21;;;;;;;;;;;;;;;0.71;75.22;100536.63;4808988;29;19987;-65
2022/02/25 00:08:46;;;;;;;;;;;;;;;0.70;75.12;100535.78;4841136;29;20319;-67
2022/02/25 00:11:12;;;;;;;;;;;;;;;0.69;75.10;100539.34;4825024;29;19928;-67
2022/02/25 00:13:37;;;;;;;;;;;;;;;0.68;74.97;100527.19;4841508;29;19928;-66
2022/02/25 00:16:03;;;;;;;;;;;;;;;0.66;74.98;100523.84;4841634;29;20411;-68
2022/02/25 00:18:28;;;;;;;;;;;;;;;0.66;74.98;100523.84;4840804;29;19940;-67
2022/02/25 00:20:54;;;;;;;;;;;;;;;0.70;74.90;100535.78;4850951;29;19928;-67
2022/02/25 00:23:19;;;;;;;;;;;;;;;0.70;74.81;100535.78;4860998;29;19950;-66
2022/02/25 00:25:45;;;;;;;;;;;;;;;0.67;74.76;100525.50;4843859;29;20015;-65
2022/02/25 00:28:10;;;;;;;;;;;;;;;0.68;74.93;100524.56;4843873;29;19974;-67
2022/02/25 00:31:01;;;;;;;;;;;;;;;0.68;74.68;100511.47;4860332;29;20455;-66
2022/02/25 00:33:27;;;;;;;;;;;;;;;0.69;74.33;100512.28;4860317;29;19928;-66
2022/02/25 00:35:52;;;;;;;;;;;;;;;0.70;74.45;100514.81;4860481;29;19928;-67
2022/02/25 00:38:18;;;;;;;;;;;;;;;0.69;74.29;100517.53;4843845;29;19928;-66
2022/02/25 00:40:44;;;;;;;;;;;;;;;0.71;74.46;100510.41;4843699;29;19931;-66
2022/02/25 00:43:10;;;;;;;;;;;;;;;0.70;74.37;100513.97;4843623;29;19924;-67
2022/02/25 00:45:35;;;;;;;;;;;;;;;0.60;74.14;100511.16;4859988;29;20392;-67
2022/02/25 00:48:01;;;;;;;;;;;;;;;0.60;74.46;100508.53;4860430;29;20410;-67
2022/02/25 00:50:27;;;;;;;;;;;;;;;0.64;74.21;100502.13;4843685;29;19924;-69
2022/02/25 00:52:53;;;;;;;;;;;;;;;0.59;74.32;100501.63;4843484;29;19928;-66
2022/02/25 00:55:19;;;;;;;;;;;;;;;0.56;74.11;100492.16;4843555;29;19996;-68
2022/02/25 00:57:47;;;;;;;;;;;;;;;0.53;74.41;100491.53;4859968;29;20392;-68
2022/02/25 01:00:14;;;;;;;;;;;;;;;0.52;74.72;100487.22;4828341;29;19976;-67
2022/02/25 01:02:40;;;;;;;;;;;;;;;0.54;74.26;100494.03;4860189;29;19931;-67
2022/02/25 01:05:06;;;;;;;;;;;;;;;0.51;74.65;100488.19;4843491;29;19924;-65
2022/02/25 01:07:31;;;;;;;;;;;;;;;0.56;74.57;100491.31;4843592;29;19971;-65
2022/02/25 01:09:57;;;;;;;;;;;;;;;0.58;74.16;100494.69;4859881;29;19979;-65
2022/02/25 01:12:22;;;;;;;;;;;;;;;0.53;73.99;100475.81;4843452;29;19928;-68
2022/02/25 01:14:47;;;;;;;;;;;;;;;0.58;73.69;100481.59;4859701;29;19950;-68
2022/02/25 01:17:13;;;;;;;;;;;;;;;0.59;73.51;100478.03;4860049;29;19924;-66
2022/02/25 01:19:38;;;;;;;;;;;;;;;0.57;73.85;100472.03;4859981;29;20298;-66
2022/02/25 01:22:05;;;;;;;;;;;;;;;0.56;73.86;100465.13;4860302;29;19935;-67
2022/02/25 01:24:30;;;;;;;;;;;;;;;0.57;73.55;100472.03;4859885;29;19928;-66
2022/02/25 01:26:56;;;;;;;;;;;;;;;0.59;73.37;100462.31;4860656;29;20414;-67
2022/02/25 01:29:21;;;;;;;;;;;;;;;0.58;73.38;100471.13;4860010;29;19924;-68
2022/02/25 01:31:47;;;;;;;;;;;;;;;0.60;73.37;100471.84;4860053;29;19928;-68
2022/02/25 01:34:12;;;;;;;;;;;;;;;0.61;73.44;100463.03;4861941;29;19928;-66
2022/02/25 01:36:37;;;;;;;;;;;;;;;0.60;73.44;100461.38;4863637;29;20010;-66
2022/02/25 01:39:03;;;;;;;;;;;;;;;0.59;73.42;100450.03;4863636;29;19949;-66
2022/02/25 01:41:32;;;;;;;;;;;;;;;0.59;73.19;100457.06;4865160;29;20022;-68
2022/02/25 01:44:13;;;;;;;;;;;;;;;0.56;73.25;100449.38;4864008;29;20403;-66
2022/02/25 01:46:39;;;;;;;;;;;;;;;0.51;73.32;100454.97;4863212;29;20031;-67
2022/02/25 01:49:04;;;;;;;;;;;;;;;0.46;73.09;100445.75;4863241;29;20010;-68
2022/02/25 01:51:30;;;;;;;;;;;;;;;0.46;73.33;100443.13;4863562;29;19924;-66
2022/02/25 01:53:55;;;;;;;;;;;;;;;0.43;73.75;100438.09;4863456;29;19931;-66
2022/02/25 01:56:20;;;;;;;;;;;;;;;0.42;73.76;100423.31;4863592;29;20412;-65
2022/02/25 01:58:46;;;;;;;;;;;;;;;0.47;73.87;100421.22;4863670;29;19931;-66
2022/02/25 02:01:12;;;;;;;;;;;;;;;0.45;73.64;100423.94;4863205;29;20311;-66
2022/02/25 02:03:38;;;;;;;;;;;;;;;0.46;73.69;100417.75;4846629;29;19924;-67
2022/02/25 02:06:07;;;;;;;;;;;;;;;0.47;73.18;100423.84;4863626;29;19924;-67
2022/02/25 02:08:32;;;;;;;;;;;;;;;0.50;73.05;100418.38;4863313;29;19931;-66
2022/02/25 02:10:57;;;;;;;;;;;;;;;0.48;73.52;100409.78;4863130;29;19924;-68
2022/02/25 02:13:23;;;;;;;;;;;;;;;0.45;73.35;100418.69;4862998;29;19924;-67
2022/02/25 02:15:48;;;;;;;;;;;;;;;0.38;73.72;100414.00;4863458;29;19924;-67
2022/02/25 02:18:14;;;;;;;;;;;;;;;0.46;73.80;100416.91;4863292;29;20425;-66
2022/02/25 02:20:44;;;;;;;;;;;;;;;0.38;73.71;100411.38;4863172;29;19928;-66
2022/02/25 02:23:09;;;;;;;;;;;;;;;0.37;73.67;100401.84;4862762;29;19928;-65
2022/02/25 02:25:35;;;;;;;;;;;;;;;0.42;73.27;100407.59;4862640;29;19925;-66
2022/02/25 02:28:18;;;;;;;;;;;;;;;0.40;73.44;100406.88;4863242;29;20288;-66
2022/02/25 02:30:45;;;;;;;;;;;;;;;0.44;72.72;100397.84;4862745;29;19924;-65
2022/02/25 02:33:11;;;;;;;;;;;;;;;0.47;72.92;100393.22;4862535;29;20023;-67
2022/02/25 02:35:37;;;;;;;;;;;;;;;0.43;72.91;100393.56;4862821;29;20031;-67
2022/02/25 02:38:02;;;;;;;;;;;;;;;0.40;72.83;100391.16;4862428;29;19933;-66
2022/02/25 02:40:28;;;;;;;;;;;;;;;0.44;72.71;100395.22;4863149;29;20019;-67
2022/02/25 02:42:53;;;;;;;;;;;;;;;0.47;72.87;100395.03;4862660;29;19928;-67
2022/02/25 02:45:19;;;;;;;;;;;;;;;0.49;72.99;100390.50;4862135;29;20018;-67
2022/02/25 02:47:44;;;;;;;;;;;;;;;0.44;72.89;100388.22;4862133;29;19924;-67
2022/02/25 02:50:10;;;;;;;;;;;;;;;0.45;73.04;100384.66;4862615;29;19932;-67
2022/02/25 02:52:35;;;;;;;;;;;;;;;0.45;72.93;100395.13;4862247;29;20060;-66
2022/02/25 02:55:00;;;;;;;;;;;;;;;0.38;73.28;100391.25;4862320;29;19931;-67
2022/02/25 02:57:26;;;;;;;;;;;;;;;0.34;72.97;100394.22;4862193;29;20400;-66
2022/02/25 02:59:51;;;;;;;;;;;;;;;0.38;73.11;100387.81;4862266;29;19925;-68
2022/02/25 03:02:17;;;;;;;;;;;;;;;0.39;72.80;100384.25;4845402;29;19931;-66
2022/02/25 03:04:42;;;;;;;;;;;;;;;0.42;72.82;100384.03;4861815;29;20299;-66
2022/02/25 03:07:10;;;;;;;;;;;;;;;0.42;73.16;100382.25;4861951;29;19980;-67
2022/02/25 03:09:35;;;;;;;;;;;;;;;0.48;73.18;100378.34;4862386;29;20408;-66
2022/02/25 03:12:02;;;;;;;;;;;;;;;0.47;72.50;100368.81;4863723;29;19949;-66
2022/02/25 03:14:28;;;;;;;;;;;;;;;0.45;72.84;100362.84;4863683;29;19924;-67
2022/02/25 03:16:53;;;;;;;;;;;;;;;0.43;73.06;100359.50;4863052;29;19950;-66
2022/02/25 03:19:19;;;;;;;;;;;;;;;0.44;73.17;100350.69;4862152;29;20487;-67
2022/02/25 03:21:47;;;;;;;;;;;;;;;0.41;73.43;100361.41;4861803;29;19934;-67
2022/02/25 03:24:12;;;;;;;;;;;;;;;0.42;73.29;100347.34;4861743;29;20004;-67
2022/02/25 03:26:38;;;;;;;;;;;;;;;0.44;73.27;100340.22;4861839;29;19924;-67
2022/02/25 03:29:03;;;;;;;;;;;;;;;0.45;72.98;100326.16;4845066;29;19928;-66
2022/02/25 03:31:29;;;;;;;;;;;;;;;0.48;73.11;100321.53;4862283;29;19924;-65
2022/02/25 03:33:54;;;;;;;;;;;;;;;0.47;73.05;100319.03;4862274;29;20392;-66
2022/02/25 03:36:20;;;;;;;;;;;;;;;0.52;73.04;100319.53;4863465;29;19924;-67
2022/02/25 03:38:45;;;;;;;;;;;;;;;0.53;73.29;100318.59;4864473;29;20460;-67
2022/02/25 03:41:10;;;;;;;;;;;;;;;0.48;73.32;100315.47;4848274;29;20404;-66
2022/02/25 03:43:36;;;;;;;;;;;;;;;0.46;73.32;100312.97;4861601;29;19924;-67
2022/02/25 03:46:02;;;;;;;;;;;;;;;0.44;73.06;100303.53;4861240;29;20014;-67
2022/02/25 03:48:28;;;;;;;;;;;;;;;0.49;73.21;100307.50;4861291;29;19924;-65
2022/02/25 03:50:53;;;;;;;;;;;;;;;0.49;73.53;100317.16;4861133;29;19928;-67
2022/02/25 03:53:19;;;;;;;;;;;;;;;0.42;73.47;100297.56;4861295;29;19924;-68
2022/02/25 03:55:44;;;;;;;;;;;;;;;0.39;73.09;100303.03;4860824;29;19931;-66
2022/02/25 03:58:10;;;;;;;;;;;;;;;0.42;73.16;100301.03;4861065;29;19924;-69
2022/02/25 04:00:35;;;;;;;;;;;;;;;0.45;73.20;100287.72;4861187;29;19932;-67
2022/02/25 04:03:01;;;;;;;;;;;;;;;0.41;73.09;100288.03;4860598;29;19972;-68
2022/02/25 04:05:26;;;;;;;;;;;;;;;0.38;73.92;100280.41;4860828;29;19928;-71
2022/02/25 04:07:53;;;;;;;;;;;;;;;0.39;73.55;100275.06;4860976;29;19924;-71
2022/02/25 04:10:19;;;;;;;;;;;;;;;0.40;73.56;100257.56;4861096;29;20000;-71
2022/02/25 04:12:44;;;;;;;;;;;;;;;0.37;73.35;100261.22;4861176;29;20009;-68
2022/02/25 04:15:10;;;;;;;;;;;;;;;0.36;73.34;100270.03;4861105;29;19924;-70
2022/02/25 04:17:35;;;;;;;;;;;;;;;0.33;74.09;100261.56;4844305;29;20439;-77
2022/02/25 04:20:02;;;;;;;;;;;;;;;0.32;73.11;100273.00;4829070;29;19987;-70
2022/02/25 04:22:29;;;;;;;;;;;;;;;0.35;73.49;100264.91;4861103;29;19997;-71
2022/02/25 04:24:54;;;;;;;;;;;;;;;0.33;73.75;100264.19;4860878;29;19971;-74
2022/02/25 04:27:21;;;;;;;;;;;;;;;0.35;73.14;100251.81;4844024;29;19931;-69
2022/02/25 04:29:46;;;;;;;;;;;;;;;0.32;73.46;100249.41;4860546;29;19931;-67
2022/02/25 04:32:12;;;;;;;;;;;;;;;0.29;73.83;100246.06;4843870;29;19924;-68
2022/02/25 04:34:41;;;;;;;;;;;;;;;0.36;73.65;100243.84;4860147;29;20337;-68
2022/02/25 04:37:06;;;;;;;;;;;;;;;0.38;73.58;100235.88;4859451;29;19931;-69
2022/02/25 04:39:31;;;;;;;;;;;;;;;0.41;73.13;100235.66;4843806;29;19935;-65
2022/02/25 04:41:57;;;;;;;;;;;;;;;0.39;73.19;100229.69;4860644;29;19924;-66
2022/02/25 04:44:22;;;;;;;;;;;;;;;0.39;73.14;100232.31;4860112;29;19935;-70
2022/02/25 04:46:49;;;;;;;;;;;;;;;0.33;73.35;100223.13;4859517;29;19924;-71
2022/02/25 04:49:15;;;;;;;;;;;;;;;0.34;73.59;100224.78;4842669;29;19974;-68
2022/02/25 04:51:41;;;;;;;;;;;;;;;0.33;73.21;100212.63;4827988;29;20284;-67
2022/02/25 04:54:07;;;;;;;;;;;;;;;0.24;73.69;100198.41;4860200;29;19931;-68
2022/02/25 04:56:32;;;;;;;;;;;;;;;0.20;73.87;100201.34;4860213;29;19928;-68
2022/02/25 04:58:57;;;;;;;;;;;;;;;0.20;74.08;100186.47;4843728;29;19924;-67
2022/02/25 05:01:23;;;;;;;;;;;;;;;0.19;73.69;100194.44;4860284;29;19975;-68
2022/02/25 05:03:48;;;;;;;;;;;;;;;0.21;73.70;100213.50;4860771;29;19925;-68
2022/02/25 05:06:14;;;;;;;;;;;;;;;0.22;73.76;100205.53;4860119;29;19924;-66
2022/02/25 05:08:39;;;;;;;;;;;;;;;0.28;73.77;100199.84;4843626;29;20352;-70
2022/02/25 05:11:05;;;;;;;;;;;;;;;0.32;73.12;100199.66;4859960;29;20440;-67
2022/02/25 05:13:30;;;;;;;;;;;;;;;0.33;73.27;100209.19;4860626;29;20015;-68
2022/02/25 05:21:24;;;;;;;;;;;;;;;0.33;72.95;100180.38;4859813;29;19977;-68
2022/02/25 05:23:50;;;;;;;;;;;;;;;0.29;73.34;100175.34;4860169;29;19932;-69
2022/02/25 05:26:15;;;;;;;;;;;;;;;0.27;73.21;100181.63;4860036;29;19924;-70
2022/02/25 05:28:41;;;;;;;;;;;;;;;0.18;72.97;100175.28;4859839;29;20299;-67
2022/02/25 05:31:06;;;;;;;;;;;;;;;0.12;73.60;100183.59;4860060;29;20304;-70
2022/02/25 05:33:32;;;;;;;;;;;;;;;0.17;73.48;100176.22;4843574;29;19932;-68
2022/02/25 05:35:58;;;;;;;;;;;;;;;0.16;73.48;100174.56;4860432;29;19928;-68
2022/02/25 05:38:23;;;;;;;;;;;;;;;0.18;73.17;100177.91;4859972;29;19931;-68
2022/02/25 05:40:49;;;;;;;;;;;;;;;0.23;73.37;100182.81;4859850;29;20327;-67
2022/02/25 05:43:14;;;;;;;;;;;;;;;0.28;73.45;100178.06;4859507;29;19924;-67
2022/02/25 05:45:39;;;;;;;;;;;;;;;0.30;73.00;100174.41;4859779;29;19967;-68
2022/02/25 05:48:05;;;;;;;;;;;;;;;0.29;72.94;100170.13;4843206;29;19931;-65
2022/02/25 05:50:30;;;;;;;;;;;;;;;0.22;72.88;100168.88;4859469;29;19947;-66
2022/02/25 05:52:56;;;;;;;;;;;;;;;0.22;73.27;100163.63;4859869;29;19924;-65
2022/02/25 05:55:21;;;;;;;;;;;;;;;0.23;73.30;100172.31;4859406;29;20014;-66
2022/02/25 05:57:47;;;;;;;;;;;;;;;0.18;73.52;100172.66;4859514;29;19932;-69
2022/02/25 06:00:15;;;;;;;;;;;;;;;0.15;73.38;100165.03;4859821;29;19928;-66
2022/02/25 06:02:42;;;;;;;;;;;;;;;0.17;73.54;100168.38;4859780;29;19924;-65
2022/02/25 06:05:08;;;;;;;;;;;;;;;0.20;73.28;100157.66;4842870;29;19963;-66
2022/02/25 06:07:33;;;;;;;;;;;;;;;0.20;73.37;100152.44;4842872;29;20368;-65
2022/02/25 06:09:59;;;;;;;;;;;;;;;0.13;73.58;100148.59;4857971;29;19979;-62
2022/02/25 06:12:24;;;;;;;;;;;;;;;0.15;73.19;100138.84;4859803;29;20299;-69
2022/02/25 06:14:49;;;;;;;;;;;;;;;0.16;73.07;100139.69;4859190;29;19924;-63
2022/02/25 06:17:15;;;;;;;;;;;;;;;0.15;73.63;100123.13;4843685;29;19924;-64
2022/02/25 06:19:40;;;;;;;;;;;;;;;0.13;72.99;100130.28;4847963;29;19924;-64
2022/02/25 06:22:06;;;;;;;;;;;;;;;0.14;73.59;100128.47;4866623;29;19928;-65
2022/02/25 06:24:32;;;;;;;;;;;;;;;0.18;73.22;100125.53;4867156;29;19953;-65
2022/02/25 06:26:57;;;;;;;;;;;;;;;0.26;73.32;100127.56;4867802;29;19924;-65
2022/02/25 06:29:23;;;;;;;;;;;;;;;0.29;73.36;100125.59;4862711;29;20031;-64
2022/02/25 06:31:48;;;;;;;;;;;;;;;0.28;72.77;100113.41;4846571;29;19968;-65
2022/02/25 06:34:13;;;;;;;;;;;;;;;0.35;73.09;100115.63;4846142;29;20398;-62
2022/02/25 06:36:40;;;;;;;;;;;;;;;0.33;73.29;100110.50;4862373;29;20441;-63
2022/02/25 06:39:05;;;;;;;;;;;;;;;0.34;72.91;100099.06;4862432;29;20399;-68
2022/02/25 06:41:31;;;;;;;;;;;;;;;0.43;72.72;100116.72;4862650;29;19924;-63
2022/02/25 06:43:56;;;;;;;;;;;;;;;0.47;72.85;100112.06;4846009;29;19924;-66
2022/02/25 06:46:22;;;;;;;;;;;;;;;0.50;72.39;100110.06;4846140;29;20350;-66
2022/02/25 06:48:47;;;;;;;;;;;;;;;0.58;72.50;100105.09;4845716;29;19931;-61
2022/02/25 06:51:13;;;;;;;;;;;;;;;0.60;71.94;100095.34;4846019;29;20080;-68
2022/02/25 06:53:38;;;;;;;;;;;;;;;0.64;72.04;100095.94;4862245;29;19924;-70
2022/02/25 06:56:04;;;;;;;;;;;;;;;0.69;72.19;100091.19;4845653;29;19924;-73
2022/02/25 06:58:30;;;;;;;;;;;;;;;0.70;71.69;100087.59;4862288;29;19924;-70
2022/02/25 07:00:55;;;;;;;;;;;;;;;0.66;72.07;100083.56;4862008;29;20395;-63
2022/02/25 07:03:21;;;;;;;;;;;;;;;0.63;71.59;100078.53;4861847;29;19924;-63
2022/02/25 07:05:46;;;;;;;;;;;;;;;0.65;72.28;100075.81;4845600;29;20026;-62
2022/02/25 07:08:11;;;;;;;;;;;;;;;0.67;72.09;100069.50;4861923;29;19925;-65
2022/02/25 07:10:37;;;;;;;;;;;;;;;0.77;72.16;100049.50;4862668;29;20277;-65
2022/02/25 07:13:04;;;;;;;;;;;;;;;0.84;71.44;100045.44;4861814;29;19928;-66
2022/02/25 07:15:30;;;;;;;;;;;;;;;0.82;71.58;100042.09;4861824;29;20504;-68
2022/02/25 07:17:56;;;;;;;;;;;;;;;0.73;72.17;100048.06;4861915;29;19924;-67
2022/02/25 07:20:21;;;;;;;;;;;;;;;0.76;71.76;100071.41;4861699;29;20412;-64
2022/02/25 07:22:48;;;;;;;;;;;;;;;0.78;72.11;100071.28;4861502;29;19928;-64
2022/02/25 07:25:14;;;;;;;;;;;;;;;0.78;71.82;100066.88;4861434;29;19928;-69
2022/02/25 07:27:39;;;;;;;;;;;;;;;0.60;72.23;100021.13;4861439;29;19947;-69
2022/02/25 07:30:06;;;;;;;;;;;;;;;0.75;72.07;100051.41;4861982;29;19924;-64
2022/02/25 07:32:31;;;;;;;;;;;;;;;0.77;71.98;100046.88;4860816;29;19956;-64
2022/02/25 07:34:57;;;;;;;;;;;;;;;0.70;72.24;100045.66;4862105;29;19924;-72
2022/02/25 07:37:23;;;;;;;;;;;;;;;0.71;72.36;100042.09;4861916;29;19938;-68
2022/02/25 07:39:49;;;;;;;;;;;;;;;0.74;72.28;100049.72;4861613;29;19924;-67
2022/02/25 07:42:14;;;;;;;;;;;;;;;0.76;72.44;100058.31;4861123;29;19931;-66
2022/02/25 07:44:39;;;;;;;;;;;;;;;0.77;72.31;100051.28;4861451;29;19931;-66
2022/02/25 07:47:05;;;;;;;;;;;;;;;0.80;72.66;100053.66;4861494;29;20030;-67
2022/02/25 07:49:31;;;;;;;;;;;;;;;0.77;72.52;100048.66;4861168;29;20018;-70
2022/02/25 07:51:57;;;;;;;;;;;;;;;0.81;72.51;100050.91;4860174;29;19964;-66
2022/02/25 07:54:25;;;;;;;;;;;;;;;0.81;72.37;100037.81;4860764;29;19975;-64
2022/02/25 07:56:50;;;;;;;;;;;;;;;0.72;72.30;100028.03;4844291;29;20019;-62
2022/02/25 07:59:16;;;;;;;;;;;;;;;0.74;73.13;100023.50;4860876;29;19933;-64
2022/02/25 08:01:42;;;;;;;;;;;;;;;0.81;72.28;100027.31;4861010;29;19927;-62
2022/02/25 08:04:08;;;;;;;;;;;;;;;0.90;72.27;100018.78;4860954;29;19924;-65
2022/02/25 08:06:34;;;;;;;;;;;;;;;1.00;72.54;100033.78;4861011;29;19984;-61
2022/02/25 08:08:59;;;;;;;;;;;;;;;1.05;71.98;100029.00;4861012;29;19924;-65
2022/02/25 08:11:25;;;;;;;;;;;;;;;1.12;71.76;100028.41;4860581;29;20015;-65
2022/02/25 08:13:50;;;;;;;;;;;;;;;1.12;71.67;100024.94;4861107;29;19924;-65
2022/02/25 08:16:16;;;;;;;;;;;;;;;1.14;71.60;100021.25;4860738;29;19931;-62
2022/02/25 08:18:41;;;;;;;;;;;;;;;1.24;71.71;100024.81;4861134;29;19924;-63
2022/02/25 08:21:07;;;;;;;;;;;;;;;1.37;70.89;100027.31;4860486;29;19935;-64
2022/02/25 08:23:34;;;;;;;;;;;;;;;1.38;71.00;100018.47;4860683;29;19928;-63
2022/02/25 08:26:00;;;;;;;;;;;;;;;1.38;71.02;100002.72;4860261;29;19935;-62
2022/02/25 08:28:26;;;;;;;;;;;;;;;1.45;70.66;100013.59;4860309;29;19924;-69
2022/02/25 08:30:51;;;;;;;;;;;;;;;1.42;70.88;100014.66;4860636;29;19924;-61
2022/02/25 08:33:18;;;;;;;;;;;;;;;1.54;70.83;100011.06;4843539;29;19928;-64
2022/02/25 08:35:44;;;;;;;;;;;;;;;1.66;70.48;100005.75;4844071;29;19928;-65
2022/02/25 08:38:09;;;;;;;;;;;;;;;1.62;70.12;100004.34;4860332;29;19934;-67
2022/02/25 08:40:36;;;;;;;;;;;;;;;1.60;70.21;99980.84;4859964;29;20419;-63
2022/02/25 08:43:02;;;;;;;;;;;;;;;1.61;70.22;99986.94;4859978;29;19930;-61
2022/02/25 08:45:28;;;;;;;;;;;;;;;1.58;70.58;99981.94;4860273;29;20272;-65
2022/02/25 08:47:54;;;;;;;;;;;;;;;1.66;70.90;99980.34;4860357;29;20027;-65
2022/02/25 08:50:54;;;;;;;;;;;;;;;1.64;70.65;99970.94;4843947;29;20260;-71
2022/02/25 08:53:20;;;;;;;;;;;;;;;1.65;70.48;99956.84;4860439;29;19924;-70
2022/02/25 08:55:46;;;;;;;;;;;;;;;1.68;70.70;99965.31;4843264;29;20311;-63
2022/02/25 08:58:11;;;;;;;;;;;;;;;1.68;70.71;99956.59;4843185;29;19925;-66
2022/02/25 09:00:37;;;;;;;;;;;;;;;1.60;70.46;99965.09;4827744;29;20031;-63
2022/02/25 09:03:02;;;;;;;;;;;;;;;1.60;70.78;99948.53;4842700;29;19924;-66
2022/02/25 09:05:28;;;;;;;;;;;;;;;1.57;70.87;99948.78;4859746;29;19980;-64
2022/02/25 09:07:54;;;;;;;;;;;;;;;1.65;70.98;99943.72;4859834;29;19932;-62
2022/02/25 09:10:20;;;;;;;;;;;;;;;1.73;70.69;99955.25;4859940;29;19928;-63
2022/02/25 09:12:46;;;;;;;;;;;;;;;1.75;70.39;99960.41;4860267;29;20438;-60
2022/02/25 09:15:13;;;;;;;;;;;;;;;1.77;70.54;99951.44;4860317;29;20324;-66
2022/02/25 09:17:39;;;;;;;;;;;;;;;1.76;70.26;99946.31;4842913;29;19924;-65
2022/02/25 09:20:07;;;;;;;;;;;;;;;1.74;70.61;99946.47;4859302;29;19935;-71
2022/02/25 09:22:33;;;;;;;;;;;;;;;1.73;70.52;99936.88;4859235;29;20285;-73
2022/02/25 09:24:59;;;;;;;;;;;;;;;1.77;70.76;99927.00;4842631;29;20068;-71
2022/02/25 09:27:25;;;;;;;;;;;;;;;1.81;71.09;99942.34;4859420;29;20026;-64
2022/02/25 09:29:51;;;;;;;;;;;;;;;1.74;70.75;99930.72;4842718;29;19931;-69
2022/02/25 09:32:16;;;;;;;;;;;;;;;1.75;70.80;99939.41;4834761;29;19925;-73
2022/02/25 09:34:41;;;;;;;;;;;;;;;1.81;70.62;99936.28;4870429;29;19924;-75
2022/02/25 09:37:07;;;;;;;;;;;;;;;1.82;71.13;99933.53;4864635;29;19988;-73
2022/02/25 09:39:33;;;;;;;;;;;;;;;1.80;70.75;99939.88;4860393;29;20543;-65
2022/02/25 09:41:58;;;;;;;;;;;;;;;1.83;70.87;99935.19;4843345;29;19924;-71
2022/02/25 09:44:24;;;;;;;;;;;;;;;1.86;70.65;99924.44;4859590;29;20014;-69
2022/02/25 09:46:50;;;;;;;;;;;;;;;1.96;70.42;99929.75;4842789;29;19928;-68
2022/02/25 09:49:16;;;;;;;;;;;;;;;1.98;70.57;99935.69;4827583;29;19972;-71
2022/02/25 09:51:41;;;;;;;;;;;;;;;1.90;70.69;99930.25;4859495;29;20309;-70
2022/02/25 09:54:07;;;;;;;;;;;;;;;1.83;71.72;99929.09;4860225;29;20020;-70
2022/02/25 09:56:33;;;;;;;;;;;;;;;1.79;71.57;99918.03;4863060;29;19931;-72
2022/02/25 09:58:59;;;;;;;;;;;;;;;1.75;71.52;99913.16;4862866;29;20382;-69
2022/02/25 10:01:35;;;;;;;;;;;;;;;1.84;71.50;99915.00;4846215;29;19989;-68
2022/02/25 10:04:14;;;;;;;;;;;;;;;1.89;71.63;99904.13;4862749;29;19927;-67
2022/02/25 10:06:40;;;;;;;;;;;;;;;1.93;71.48;99906.38;4862628;29;20421;-66
2022/02/25 10:09:33;;;;;;;;;;;;;;;1.99;71.40;99908.47;4862781;29;19978;-66
2022/02/25 10:12:01;;;;;;;;;;;;;;;2.04;70.96;99900.22;4845363;29;19932;-69
2022/02/25 10:14:34;;;;;;;;;;;;;;;2.03;71.02;99898.56;4846378;29;19924;-71
2022/02/25 10:17:05;;;;;;;;;;;;;;;2.03;71.17;99898.56;4863412;29;19924;-72
2022/02/25 10:19:31;;;;;;;;;;;;;;;2.04;71.36;99900.22;4845805;29;19924;-66
2022/02/25 10:22:20;;;;;;;;;;;;;;;2.04;71.15;99889.72;4862642;29;19928;-74
2022/02/25 10:24:46;;;;;;;;;;;;;;;1.99;71.11;99881.38;4845746;29;20328;-70
2022/02/25 10:27:26;;;;;;;;;;;;;;;1.98;71.51;99911.22;4831219;29;19924;-73
2022/02/25 10:29:52;;;;;;;;;;;;;;;1.92;72.08;99902.06;4846743;29;19924;-72
2022/02/25 10:32:19;;;;;;;;;;;;;;;1.85;72.40;99903.56;4863387;29;19931;-71
2022/02/25 10:34:44;;;;;;;;;;;;;;;1.86;72.28;99898.16;4863581;29;19931;-69
2022/02/25 10:37:10;;;;;;;;;;;;;;;1.85;72.27;99904.38;4847262;29;19924;-77
2022/02/25 10:39:38;;;;;;;;;;;;;;;1.87;72.65;99896.38;4863968;29;19935;-78
2022/02/25 10:42:19;;;;;;;;;;;;;;;1.88;72.85;99911.16;4863899;29;20007;-69
2022/02/25 10:44:54;;;;;;;;;;;;;;;1.85;72.95;99917.50;4863608;29;19931;-69
2022/02/25 10:47:24;;;;;;;;;;;;;;;1.80;73.33;99918.84;4862924;29;19928;-65
2022/02/25 10:49:59;;;;;;;;;;;;;;;1.77;73.42;99922.56;4863194;29;19924;-73
2022/02/25 10:52:28;;;;;;;;;;;;;;;1.81;73.58;99916.09;4863245;29;20031;-70
2022/02/25 10:54:54;;;;;;;;;;;;;;;1.84;73.54;99921.09;4846345;29;19967;-68
2022/02/25 10:57:19;;;;;;;;;;;;;;;1.89;73.25;99912.00;4863049;29;20031;-69
2022/02/25 10:59:46;;;;;;;;;;;;;;;1.90;73.92;99911.88;4863040;29;20319;-66
2022/02/25 11:02:22;;;;;;;;;;;;;;;1.93;73.50;99910.78;4863782;29;19924;-69
2022/02/25 11:05:01;;;;;;;;;;;;;;;1.97;73.78;99906.94;4863126;29;20316;-68
2022/02/25 11:07:29;;;;;;;;;;;;;;;2.03;73.83;99909.91;4862189;29;19931;-70
2022/02/25 11:09:54;;;;;;;;;;;;;;;2.09;73.55;99908.56;4845880;29;19959;-68
2022/02/25 11:12:20;;;;;;;;;;;;;;;2.08;73.49;99905.09;4861978;29;19974;-70
2022/02/25 11:14:46;;;;;;;;;;;;;;;2.07;73.84;99905.22;4862222;29;20382;-70
2022/02/25 11:17:12;;;;;;;;;;;;;;;2.03;74.39;99901.19;4845783;29;19924;-71
2022/02/25 11:19:39;;;;;;;;;;;;;;;2.03;74.59;99904.66;4864017;29;19930;-67
2022/02/25 11:22:06;;;;;;;;;;;;;;;1.95;75.70;99903.59;4862619;29;19928;-71
2022/02/25 11:24:37;;;;;;;;;;;;;;;1.90;76.44;99898.75;4862895;29;19928;-70
2022/02/25 11:27:03;;;;;;;;;;;;;;;1.96;75.99;99894.78;4863009;29;19972;-74
2022/02/25 11:29:29;;;;;;;;;;;;;;;1.98;76.90;99883.16;4862042;29;19947;-72
2022/02/25 11:31:56;;;;;;;;;;;;;;;1.98;76.96;99890.22;4845324;29;20411;-68
2022/02/25 11:34:24;;;;;;;;;;;;;;;2.03;76.52;99888.06;4862176;29;19924;-67
2022/02/25 11:36:49;;;;;;;;;;;;;;;1.98;77.32;99882.34;4845286;29;20423;-67
2022/02/25 11:39:18;;;;;;;;;;;;;;;1.94;77.62;99884.41;4861688;29;19931;-67
2022/02/25 11:41:49;;;;;;;;;;;;;;;1.92;77.94;99885.50;4861249;29;20379;-67
2022/02/25 11:44:15;;;;;;;;;;;;;;;1.91;78.14;99868.91;4861956;29;20386;-74
2022/02/25 11:46:41;;;;;;;;;;;;;;;2.00;77.94;99868.13;4845755;29;19931;-74
2022/02/25 11:49:07;;;;;;;;;;;;;;;2.05;77.73;99876.47;4861657;29;19972;-76
2022/02/25 11:51:37;;;;;;;;;;;;;;;2.02;78.03;99858.31;4845555;29;20320;-70
2022/02/25 11:54:21;;;;;;;;;;;;;;;1.98;78.20;99854.28;4861530;29;19924;-68
2022/02/25 11:56:55;;;;;;;;;;;;;;;1.95;77.88;99859.78;4861916;29;19924;-70
2022/02/25 11:59:21;;;;;;;;;;;;;;;1.91;78.13;99868.06;4830003;29;19948;-71
2022/02/25 12:02:05;;;;;;;;;;;;;;;1.85;78.71;99872.03;4861876;29;19946;-72
2022/02/25 12:04:36;;;;;;;;;;;;;;;1.76;79.25;99878.91;4861603;29;20023;-69
2022/02/25 12:07:08;;;;;;;;;;;;;;;1.66;80.03;99885.88;4861142;29;20023;-66
2022/02/25 12:09:48;;;;;;;;;;;;;;;1.61;80.25;99881.97;4861114;29;19935;-75
2022/02/25 12:12:20;;;;;;;;;;;;;;;1.58;80.33;99887.47;4861003;29;19928;-70
2022/02/25 12:15:00;;;;;;;;;;;;;;;1.51;80.40;99887.97;4844173;29;20396;-72
2022/02/25 12:17:40;;;;;;;;;;;;;;;1.55;80.57;99878.88;4860830;29;19931;-72
2022/02/25 12:20:08;;;;;;;;;;;;;;;1.55;80.55;99883.31;4860893;29;19928;-72
2022/02/25 12:22:55;;;;;;;;;;;;;;;1.61;80.38;99881.97;4861324;29;19932;-70
2022/02/25 12:25:38;;;;;;;;;;;;;;;1.68;80.16;99883.09;4845445;29;20396;-67
2022/02/25 12:28:22;;;;;;;;;;;;;;;1.71;80.37;99874.97;4860618;29;20367;-70
2022/02/25 12:30:58;;;;;;;;;;;;;;;1.72;80.06;99871.38;4860472;29;20388;-69
2022/02/25 12:33:42;;;;;;;;;;;;;;;1.71;80.75;99864.47;4843642;29;20073;-66
2022/02/25 12:36:08;;;;;;;;;;;;;;;1.72;80.18;99863.50;4860210;29;19979;-68
2022/02/25 12:38:38;;;;;;;;;;;;;;;1.68;80.33;99862.09;4860480;29;20343;-68
2022/02/25 12:41:11;;;;;;;;;;;;;;;1.69;80.60;99854.09;4842629;29;20520;-71
2022/02/25 12:43:51;;;;;;;;;;;;;;;1.72;80.20;99848.59;4860378;29;20296;-68
2022/02/25 12:46:18;;;;;;;;;;;;;;;1.75;80.15;99837.03;4859857;29;19924;-70
2022/02/25 12:48:44;;;;;;;;;;;;;;;1.76;80.51;99844.78;4860318;29;19938;-71
2022/02/25 12:51:09;;;;;;;;;;;;;;;1.71;80.38;99848.72;4860101;29;20389;-67
2022/02/25 12:53:50;;;;;;;;;;;;;;;1.73;80.56;99849.44;4843656;29;19924;-66
2022/02/25 12:56:23;;;;;;;;;;;;;;;1.70;80.85;99839.19;4859925;29;20403;-69